KCEW/CEW METAR and TAF weather

Enter ICAO airport designator
Station Type Date Time Source
KCEW METAR 2020/02/29 02:53 UTC NOAA

KCEW 290253Z AUTO 28006KT 10SM CLR 10/04 A3025 RMK AO2 SLP244 T01000039 53023


Station Type Date Time Source
KCEW Decoded METAR 2020/02/29 02:53 UTC NOAA

CRESTVIEW SIKES AIRPORT, FL, United States (KCEW) 30-46N 086-31W 55M
Feb 28, 2020 - 09:53 PM EST / 2020.02.29 0253 UTC
Wind: from the W (280 degrees) at 7 MPH (6 KT):0
Visibility: 10 mile(s):0
Sky conditions: clear
Temperature: 50.0 F (10.0 C)
Dew Point: 39.0 F (3.9 C)
Relative Humidity: 65%
Pressure (altimeter): 30.25 in. Hg (1024 hPa)
Pressure tendency: 0.07 inches (2.3 hPa) higher than three hours ago
ob: KCEW 290253Z AUTO 28006KT 10SM CLR 10/04 A3025 RMK AO2 SLP244 T01000039 53023
cycle: 3

Station Type Date Time Source
KCEW TAF UTC NOAA

Error!

Example: see airport list